sensor_id;sensor_type;location;lat;lon;timestamp;pressure;altitude;pressure_sealevel;temperature;humidity
36852;BME280;22784;52.476;13.424;2022-08-06T00:01:55;101466.19;;;22.12;50.79
36852;BME280;22784;52.476;13.424;2022-08-06T00:05:59;101474.03;;;22.04;51.20
36852;BME280;22784;52.476;13.424;2022-08-06T00:10:06;101478.00;;;21.94;50.85
36852;BME280;22784;52.476;13.424;2022-08-06T00:14:09;101485.38;;;21.88;51.04
36852;BME280;22784;52.476;13.424;2022-08-06T00:18:13;101514.16;;;21.94;51.05
36852;BME280;22784;52.476;13.424;2022-08-06T00:22:17;101520.31;;;21.89;50.69
36852;BME280;22784;52.476;13.424;2022-08-06T00:26:23;101487.75;;;21.68;50.97
36852;BME280;22784;52.476;13.424;2022-08-06T00:30:27;101509.13;;;21.80;50.79
36852;BME280;22784;52.476;13.424;2022-08-06T00:34:31;101519.44;;;21.70;51.68
36852;BME280;22784;52.476;13.424;2022-08-06T00:38:35;101485.28;;;21.48;51.41
36852;BME280;22784;52.476;13.424;2022-08-06T00:42:41;101499.19;;;21.48;51.11
36852;BME280;22784;52.476;13.424;2022-08-06T00:46:45;101495.03;;;21.31;51.22
36852;BME280;22784;52.476;13.424;2022-08-06T00:50:50;101520.25;;;21.36;50.98
36852;BME280;22784;52.476;13.424;2022-08-06T00:54:53;101517.06;;;21.25;51.58
36852;BME280;22784;52.476;13.424;2022-08-06T00:58:59;101531.28;;;21.27;51.39
36852;BME280;22784;52.476;13.424;2022-08-06T01:03:03;101523.50;;;21.22;51.31
36852;BME280;22784;52.476;13.424;2022-08-06T01:07:06;101534.00;;;21.18;51.42
36852;BME280;22784;52.476;13.424;2022-08-06T01:11:10;101538.97;;;21.10;51.30
36852;BME280;22784;52.476;13.424;2022-08-06T01:15:16;101519.22;;;20.96;50.91
36852;BME280;22784;52.476;13.424;2022-08-06T01:19:40;101537.53;;;21.06;50.99
36852;BME280;22784;52.476;13.424;2022-08-06T01:24:15;101545.22;;;21.02;50.92
36852;BME280;22784;52.476;13.424;2022-08-06T01:28:31;101530.81;;;20.81;51.32
36852;BME280;22784;52.476;13.424;2022-08-06T01:32:40;101552.69;;;20.92;51.25
36852;BME280;22784;52.476;13.424;2022-08-06T01:36:50;101547.03;;;20.83;51.47
36852;BME280;22784;52.476;13.424;2022-08-06T01:40:57;101557.50;;;20.79;52.23
36852;BME280;22784;52.476;13.424;2022-08-06T01:45:11;101554.38;;;20.77;51.97
36852;BME280;22784;52.476;13.424;2022-08-06T01:49:19;101562.38;;;20.75;51.54
36852;BME280;22784;52.476;13.424;2022-08-06T01:53:28;101558.94;;;20.71;52.20
36852;BME280;22784;52.476;13.424;2022-08-06T01:57:33;101543.69;;;20.63;52.29
36852;BME280;22784;52.476;13.424;2022-08-06T02:01:43;101541.03;;;20.59;52.24
36852;BME280;22784;52.476;13.424;2022-08-06T02:05:47;101512.22;;;20.28;52.20
36852;BME280;22784;52.476;13.424;2022-08-06T02:09:54;101561.72;;;20.58;52.52
36852;BME280;22784;52.476;13.424;2022-08-06T02:14:00;101543.47;;;20.44;52.52
36852;BME280;22784;52.476;13.424;2022-08-06T02:18:09;101558.47;;;20.47;53.09
36852;BME280;22784;52.476;13.424;2022-08-06T02:22:15;101534.88;;;20.26;53.36
36852;BME280;22784;52.476;13.424;2022-08-06T02:26:21;101521.56;;;20.09;53.63
36852;BME280;22784;52.476;13.424;2022-08-06T02:30:31;101568.31;;;20.23;53.92
36852;BME280;22784;52.476;13.424;2022-08-06T02:34:37;101517.28;;;19.91;53.89
36852;BME280;22784;52.476;13.424;2022-08-06T02:38:45;101582.63;;;20.21;54.55
36852;BME280;22784;52.476;13.424;2022-08-06T02:42:56;101567.38;;;20.00;54.73
36852;BME280;22784;52.476;13.424;2022-08-06T02:47:06;101586.94;;;20.10;55.05
36852;BME280;22784;52.476;13.424;2022-08-06T02:51:16;101601.59;;;20.10;55.08
36852;BME280;22784;52.476;13.424;2022-08-06T02:55:25;101563.44;;;19.85;54.96
36852;BME280;22784;52.476;13.424;2022-08-06T02:59:37;101609.47;;;20.12;54.64
36852;BME280;22784;52.476;13.424;2022-08-06T03:03:45;101620.56;;;20.12;54.49
36852;BME280;22784;52.476;13.424;2022-08-06T03:07:54;101571.63;;;19.76;54.44
36852;BME280;22784;52.476;13.424;2022-08-06T03:12:00;101627.88;;;20.06;54.42
36852;BME280;22784;52.476;13.424;2022-08-06T03:16:05;101623.75;;;19.97;54.44
36852;BME280;22784;52.476;13.424;2022-08-06T03:20:11;101617.94;;;19.92;54.59
36852;BME280;22784;52.476;13.424;2022-08-06T03:24:19;101639.53;;;20.00;54.07
36852;BME280;22784;52.476;13.424;2022-08-06T03:28:24;101635.38;;;19.92;54.34
36852;BME280;22784;52.476;13.424;2022-08-06T03:32:30;101569.28;;;19.30;53.96
36852;BME280;22784;52.476;13.424;2022-08-06T03:36:37;101655.44;;;19.84;54.46
36852;BME280;22784;52.476;13.424;2022-08-06T03:40:47;101631.22;;;19.55;54.27
36852;BME280;22784;52.476;13.424;2022-08-06T03:44:55;101663.84;;;19.80;54.32
36852;BME280;22784;52.476;13.424;2022-08-06T03:49:01;101662.66;;;19.65;54.38
36852;BME280;22784;52.476;13.424;2022-08-06T03:53:09;101681.00;;;19.75;54.35
36852;BME280;22784;52.476;13.424;2022-08-06T03:57:19;101681.81;;;19.76;54.49
36852;BME280;22784;52.476;13.424;2022-08-06T04:01:27;101684.75;;;19.69;54.41
36852;BME280;22784;52.476;13.424;2022-08-06T04:05:32;101650.44;;;19.46;54.32
36852;BME280;22784;52.476;13.424;2022-08-06T04:09:37;101686.94;;;19.61;54.51
36852;BME280;22784;52.476;13.424;2022-08-06T04:13:44;101704.00;;;19.76;54.29
36852;BME280;22784;52.476;13.424;2022-08-06T04:17:49;101705.13;;;19.78;54.31
36852;BME280;22784;52.476;13.424;2022-08-06T04:21:54;101701.56;;;19.78;54.01
36852;BME280;22784;52.476;13.424;2022-08-06T04:26:02;101710.03;;;19.87;54.23
36852;BME280;22784;52.476;13.424;2022-08-06T04:30:10;101715.25;;;19.85;54.04
36852;BME280;22784;52.476;13.424;2022-08-06T04:34:19;101726.63;;;19.90;53.88
36852;BME280;22784;52.476;13.424;2022-08-06T04:38:23;101732.16;;;19.90;53.95
36852;BME280;22784;52.476;13.424;2022-08-06T04:42:28;101728.59;;;19.90;53.85
36852;BME280;22784;52.476;13.424;2022-08-06T04:46:35;101716.66;;;19.77;53.82
36852;BME280;22784;52.476;13.424;2022-08-06T04:50:39;101754.16;;;19.97;53.77
36852;BME280;22784;52.476;13.424;2022-08-06T04:54:43;101740.13;;;19.88;54.04
36852;BME280;22784;52.476;13.424;2022-08-06T04:58:47;101745.78;;;19.85;53.71
36852;BME280;22784;52.476;13.424;2022-08-06T05:02:53;101771.34;;;20.09;53.92
36852;BME280;22784;52.476;13.424;2022-08-06T05:07:00;101740.22;;;19.85;53.30
36852;BME280;22784;52.476;13.424;2022-08-06T05:11:12;101719.69;;;19.66;53.56
36852;BME280;22784;52.476;13.424;2022-08-06T05:15:22;101792.41;;;20.06;53.50
36852;BME280;22784;52.476;13.424;2022-08-06T05:19:34;101766.66;;;19.89;53.69
36852;BME280;22784;52.476;13.424;2022-08-06T05:23:47;101755.22;;;19.71;53.86
36852;BME280;22784;52.476;13.424;2022-08-06T05:27:51;101806.47;;;19.99;53.81
36852;BME280;22784;52.476;13.424;2022-08-06T05:31:57;101805.84;;;19.91;53.96
36852;BME280;22784;52.476;13.424;2022-08-06T05:36:06;101815.41;;;19.90;54.26
36852;BME280;22784;52.476;13.424;2022-08-06T05:40:11;101803.59;;;19.86;53.77
36852;BME280;22784;52.476;13.424;2022-08-06T05:44:15;101811.06;;;19.89;53.82
36852;BME280;22784;52.476;13.424;2022-08-06T05:48:19;101795.09;;;19.93;53.64
36852;BME280;22784;52.476;13.424;2022-08-06T05:52:29;101826.69;;;20.32;53.23
36852;BME280;22784;52.476;13.424;2022-08-06T05:56:43;101803.16;;;20.36;52.75
36852;BME280;22784;52.476;13.424;2022-08-06T06:00:50;101835.41;;;20.75;52.47
36852;BME280;22784;52.476;13.424;2022-08-06T06:04:55;101819.09;;;20.77;51.90
36852;BME280;22784;52.476;13.424;2022-08-06T06:09:01;101848.50;;;21.04;51.18
36852;BME280;22784;52.476;13.424;2022-08-06T06:13:05;101854.53;;;21.31;50.75
36852;BME280;22784;52.476;13.424;2022-08-06T06:17:37;101826.59;;;21.35;50.24
36852;BME280;22784;52.476;13.424;2022-08-06T06:21:51;101837.53;;;21.67;49.47
36852;BME280;22784;52.476;13.424;2022-08-06T06:26:03;101858.47;;;21.84;49.33
36852;BME280;22784;52.476;13.424;2022-08-06T06:30:15;101860.00;;;22.11;48.69
36852;BME280;22784;52.476;13.424;2022-08-06T06:34:25;101858.53;;;22.31;47.73
36852;BME280;22784;52.476;13.424;2022-08-06T06:38:38;101839.31;;;22.46;47.07
36852;BME280;22784;52.476;13.424;2022-08-06T06:42:54;101871.47;;;22.94;46.30
36852;BME280;22784;52.476;13.424;2022-08-06T06:47:03;101871.41;;;23.28;45.31
36852;BME280;22784;52.476;13.424;2022-08-06T06:51:11;101863.22;;;23.56;43.81
36852;BME280;22784;52.476;13.424;2022-08-06T06:55:37;101873.94;;;24.06;42.96
36852;BME280;22784;52.476;13.424;2022-08-06T06:59:49;101881.88;;;24.17;41.88
36852;BME280;22784;52.476;13.424;2022-08-06T07:03:55;101870.53;;;24.12;41.49
36852;BME280;22784;52.476;13.424;2022-08-06T07:08:00;101871.50;;;24.18;41.50
36852;BME280;22784;52.476;13.424;2022-08-06T07:12:08;101886.31;;;24.36;40.92
36852;BME280;22784;52.476;13.424;2022-08-06T07:16:16;101851.00;;;24.12;40.97
36852;BME280;22784;52.476;13.424;2022-08-06T07:20:25;101881.19;;;24.53;40.45
36852;BME280;22784;52.476;13.424;2022-08-06T07:24:33;101892.06;;;24.69;40.18
36852;BME280;22784;52.476;13.424;2022-08-06T07:28:37;101888.19;;;24.76;40.10
36852;BME280;22784;52.476;13.424;2022-08-06T07:32:46;101863.81;;;24.67;40.13
36852;BME280;22784;52.476;13.424;2022-08-06T07:36:52;101878.28;;;24.93;39.74
36852;BME280;22784;52.476;13.424;2022-08-06T07:40:59;101907.63;;;25.16;39.41
36852;BME280;22784;52.476;13.424;2022-08-06T07:45:07;101888.06;;;24.98;39.44
36852;BME280;22784;52.476;13.424;2022-08-06T07:49:15;101913.84;;;25.11;38.95
36852;BME280;22784;52.476;13.424;2022-08-06T07:53:21;101912.25;;;24.55;40.33
36852;BME280;22784;52.476;13.424;2022-08-06T07:57:26;101904.19;;;24.75;40.05
36852;BME280;22784;52.476;13.424;2022-08-06T08:01:35;101925.03;;;24.83;39.92
36852;BME280;22784;52.476;13.424;2022-08-06T08:05:47;101929.44;;;24.35;40.27
36852;BME280;22784;52.476;13.424;2022-08-06T08:10:05;101910.28;;;24.16;40.98
36852;BME280;22784;52.476;13.424;2022-08-06T08:14:10;101933.16;;;24.23;40.97
36852;BME280;22784;52.476;13.424;2022-08-06T08:18:14;101915.50;;;24.04;40.14
36852;BME280;22784;52.476;13.424;2022-08-06T08:22:21;101886.28;;;23.87;40.70
36852;BME280;22784;52.476;13.424;2022-08-06T08:26:29;101936.09;;;24.20;40.24
36852;BME280;22784;52.476;13.424;2022-08-06T08:30:38;101949.63;;;23.99;39.12
36852;BME280;22784;52.476;13.424;2022-08-06T08:34:43;101943.66;;;23.79;39.00
36852;BME280;22784;52.476;13.424;2022-08-06T08:38:59;101947.25;;;23.89;38.67
36852;BME280;22784;52.476;13.424;2022-08-06T08:43:07;101918.97;;;24.18;37.85
36852;BME280;22784;52.476;13.424;2022-08-06T08:47:17;101898.72;;;24.26;38.15
36852;BME280;22784;52.476;13.424;2022-08-06T08:51:25;101921.84;;;24.45;38.84
36852;BME280;22784;52.476;13.424;2022-08-06T08:55:32;101926.94;;;24.28;38.68
36852;BME280;22784;52.476;13.424;2022-08-06T08:59:36;101950.53;;;24.18;38.87
36852;BME280;22784;52.476;13.424;2022-08-06T09:03:41;101908.25;;;23.67;38.14
36852;BME280;22784;52.476;13.424;2022-08-06T09:07:45;101949.34;;;24.06;37.86
36852;BME280;22784;52.476;13.424;2022-08-06T09:11:52;101936.09;;;24.29;37.34
36852;BME280;22784;52.476;13.424;2022-08-06T09:15:56;101892.00;;;24.24;37.25
36852;BME280;22784;52.476;13.424;2022-08-06T09:20:00;101950.31;;;24.62;36.67
36852;BME280;22784;52.476;13.424;2022-08-06T09:24:07;101937.28;;;24.68;35.38
36852;BME280;22784;52.476;13.424;2022-08-06T09:28:30;101933.13;;;24.91;34.84
36852;BME280;22784;52.476;13.424;2022-08-06T09:32:40;101956.75;;;24.90;34.34
36852;BME280;22784;52.476;13.424;2022-08-06T09:36:45;101953.53;;;24.51;34.07
36852;BME280;22784;52.476;13.424;2022-08-06T09:41:03;101910.84;;;24.41;34.40
36852;BME280;22784;52.476;13.424;2022-08-06T09:45:17;101953.00;;;24.93;33.80
36852;BME280;22784;52.476;13.424;2022-08-06T09:49:24;101904.19;;;24.75;33.85
36852;BME280;22784;52.476;13.424;2022-08-06T09:53:31;101958.91;;;25.04;33.35
36852;BME280;22784;52.476;13.424;2022-08-06T09:57:43;101958.09;;;25.40;32.97
36852;BME280;22784;52.476;13.424;2022-08-06T10:01:49;101954.53;;;25.39;31.94
36852;BME280;22784;52.476;13.424;2022-08-06T10:06:04;101946.63;;;25.10;33.30
36852;BME280;22784;52.476;13.424;2022-08-06T10:10:08;101958.31;;;25.09;33.68
36852;BME280;22784;52.476;13.424;2022-08-06T10:14:33;101951.31;;;25.32;33.31
36852;BME280;22784;52.476;13.424;2022-08-06T10:18:52;101958.09;;;25.58;33.42
36852;BME280;22784;52.476;13.424;2022-08-06T10:22:56;101959.50;;;25.62;32.50
36852;BME280;22784;52.476;13.424;2022-08-06T10:27:05;101957.00;;;25.46;33.27
36852;BME280;22784;52.476;13.424;2022-08-06T10:31:12;101944.25;;;25.45;32.96
36852;BME280;22784;52.476;13.424;2022-08-06T10:35:21;101950.09;;;25.84;32.16
36852;BME280;22784;52.476;13.424;2022-08-06T10:39:26;101913.81;;;25.38;32.52
36852;BME280;22784;52.476;13.424;2022-08-06T10:43:34;101971.00;;;25.46;33.27
36852;BME280;22784;52.476;13.424;2022-08-06T10:47:38;101946.00;;;25.43;32.95
36852;BME280;22784;52.476;13.424;2022-08-06T10:51:45;101958.59;;;25.38;32.11
36852;BME280;22784;52.476;13.424;2022-08-06T10:55:50;101938.50;;;25.49;31.76
36852;BME280;22784;52.476;13.424;2022-08-06T10:59:54;101940.72;;;25.96;31.63
36852;BME280;22784;52.476;13.424;2022-08-06T11:04:17;101939.41;;;26.15;30.52
36852;BME280;22784;52.476;13.424;2022-08-06T11:08:36;101944.84;;;26.09;31.17
36852;BME280;22784;52.476;13.424;2022-08-06T11:12:50;101922.09;;;26.49;31.02
36852;BME280;22784;52.476;13.424;2022-08-06T11:16:59;101943.84;;;27.02;30.47
36852;BME280;22784;52.476;13.424;2022-08-06T11:21:03;101915.28;;;26.65;30.30
36852;BME280;22784;52.476;13.424;2022-08-06T11:25:40;101881.72;;;26.56;30.53
36852;BME280;22784;52.476;13.424;2022-08-06T11:30:06;101905.13;;;26.92;30.37
36852;BME280;22784;52.476;13.424;2022-08-06T11:38:59;101907.72;;;26.33;29.36
36852;BME280;22784;52.476;13.424;2022-08-06T11:43:08;101926.81;;;26.82;28.78
36852;BME280;22784;52.476;13.424;2022-08-06T11:47:13;101920.06;;;27.12;28.62
36852;BME280;22784;52.476;13.424;2022-08-06T11:51:38;101905.50;;;26.99;28.76
36852;BME280;22784;52.476;13.424;2022-08-06T11:56:02;101925.00;;;27.47;28.59
36852;BME280;22784;52.476;13.424;2022-08-06T12:00:14;101934.41;;;27.44;28.06
36852;BME280;22784;52.476;13.424;2022-08-06T12:04:39;101921.16;;;27.74;27.89
36852;BME280;22784;52.476;13.424;2022-08-06T12:09:05;101936.63;;;27.40;28.34
36852;BME280;22784;52.476;13.424;2022-08-06T12:13:37;101895.97;;;26.82;27.23
36852;BME280;22784;52.476;13.424;2022-08-06T12:17:56;101914.34;;;26.83;27.73
36852;BME280;22784;52.476;13.424;2022-08-06T12:22:00;101909.88;;;27.00;27.74
36852;BME280;22784;52.476;13.424;2022-08-06T12:26:05;101932.94;;;27.19;27.48
36852;BME280;22784;52.476;13.424;2022-08-06T12:30:11;101931.13;;;26.92;27.72
36852;BME280;22784;52.476;13.424;2022-08-06T12:34:26;101931.63;;;26.67;28.35
36852;BME280;22784;52.476;13.424;2022-08-06T12:38:31;101898.59;;;26.23;28.53
36852;BME280;22784;52.476;13.424;2022-08-06T12:42:35;101912.91;;;26.49;28.95
36852;BME280;22784;52.476;13.424;2022-08-06T12:46:39;101916.72;;;29.23;24.82
36852;BME280;22784;52.476;13.424;2022-08-06T12:50:46;101849.63;;;28.09;24.54
36852;BME280;22784;52.476;13.424;2022-08-06T12:54:49;101908.97;;;28.92;23.97
36852;BME280;22784;52.476;13.424;2022-08-06T12:58:54;101898.22;;;29.17;24.00
36852;BME280;22784;52.476;13.424;2022-08-06T13:02:58;101885.69;;;29.18;24.28
36852;BME280;22784;52.476;13.424;2022-08-06T13:07:06;101875.44;;;29.41;24.65
36852;BME280;22784;52.476;13.424;2022-08-06T13:11:10;101883.44;;;29.48;23.38
36852;BME280;22784;52.476;13.424;2022-08-06T13:15:14;101894.97;;;29.50;23.04
36852;BME280;22784;52.476;13.424;2022-08-06T13:19:18;101902.44;;;29.27;23.56
36852;BME280;22784;52.476;13.424;2022-08-06T13:23:33;101890.22;;;28.84;23.57
36852;BME280;22784;52.476;13.424;2022-08-06T13:27:37;101900.56;;;28.72;24.05
36852;BME280;22784;52.476;13.424;2022-08-06T13:31:41;101895.00;;;28.98;24.54
36852;BME280;22784;52.476;13.424;2022-08-06T13:35:47;101899.63;;;29.27;24.14
36852;BME280;22784;52.476;13.424;2022-08-06T13:39:56;101892.59;;;29.17;23.31
36852;BME280;22784;52.476;13.424;2022-08-06T13:44:03;101898.50;;;28.73;22.66
36852;BME280;22784;52.476;13.424;2022-08-06T13:48:08;101881.72;;;28.38;22.99
36852;BME280;22784;52.476;13.424;2022-08-06T13:52:15;101897.28;;;28.33;23.06
36852;BME280;22784;52.476;13.424;2022-08-06T13:56:21;101898.53;;;28.32;23.09
36852;BME280;22784;52.476;13.424;2022-08-06T14:00:25;101895.22;;;28.14;23.89
36852;BME280;22784;52.476;13.424;2022-08-06T14:04:29;101892.25;;;28.23;24.34
36852;BME280;22784;52.476;13.424;2022-08-06T14:08:33;101889.66;;;28.04;23.51
36852;BME280;22784;52.476;13.424;2022-08-06T14:12:41;101892.78;;;28.06;23.93
36852;BME280;22784;52.476;13.424;2022-08-06T14:17:04;101883.97;;;27.99;23.05
36852;BME280;22784;52.476;13.424;2022-08-06T14:21:08;101875.28;;;27.82;23.62
36852;BME280;22784;52.476;13.424;2022-08-06T14:25:12;101876.00;;;27.77;23.63
36852;BME280;22784;52.476;13.424;2022-08-06T14:29:18;101891.34;;;27.96;23.70
36852;BME280;22784;52.476;13.424;2022-08-06T14:33:22;101860.97;;;27.80;24.12
36852;BME280;22784;52.476;13.424;2022-08-06T14:37:26;101889.41;;;28.02;24.44
36852;BME280;22784;52.476;13.424;2022-08-06T14:41:37;101880.38;;;27.98;24.50
36852;BME280;22784;52.476;13.424;2022-08-06T14:45:56;101878.19;;;27.88;24.88
36852;BME280;22784;52.476;13.424;2022-08-06T14:50:03;101869.03;;;27.73;24.92
36852;BME280;22784;52.476;13.424;2022-08-06T14:54:08;101847.09;;;27.56;25.08
36852;BME280;22784;52.476;13.424;2022-08-06T14:58:15;101872.53;;;27.53;26.45
36852;BME280;22784;52.476;13.424;2022-08-06T15:02:21;101879.81;;;27.59;25.41
36852;BME280;22784;52.476;13.424;2022-08-06T15:06:25;101871.28;;;27.54;26.34
36852;BME280;22784;52.476;13.424;2022-08-06T15:10:29;101860.91;;;27.30;25.90
36852;BME280;22784;52.476;13.424;2022-08-06T15:14:33;101843.50;;;27.26;25.99
36852;BME280;22784;52.476;13.424;2022-08-06T15:18:40;101846.19;;;27.36;25.13
36852;BME280;22784;52.476;13.424;2022-08-06T15:22:45;101880.38;;;27.63;24.83
36852;BME280;22784;52.476;13.424;2022-08-06T15:26:49;101864.41;;;27.55;24.60
36852;BME280;22784;52.476;13.424;2022-08-06T15:30:53;101838.63;;;27.42;24.97
36852;BME280;22784;52.476;13.424;2022-08-06T15:35:02;101856.00;;;27.55;24.25
36852;BME280;22784;52.476;13.424;2022-08-06T15:39:06;101870.50;;;27.68;24.17
36852;BME280;22784;52.476;13.424;2022-08-06T15:43:13;101874.66;;;27.58;24.65
36852;BME280;22784;52.476;13.424;2022-08-06T15:47:17;101873.50;;;27.50;24.27
36852;BME280;22784;52.476;13.424;2022-08-06T15:51:24;101864.28;;;27.35;24.28
36852;BME280;22784;52.476;13.424;2022-08-06T15:55:28;101864.22;;;27.14;24.58
36852;BME280;22784;52.476;13.424;2022-08-06T15:59:32;101864.22;;;27.14;24.33
36852;BME280;22784;52.476;13.424;2022-08-06T16:03:36;101842.44;;;27.09;24.35
36852;BME280;22784;52.476;13.424;2022-08-06T16:07:42;101856.94;;;27.22;24.22
36852;BME280;22784;52.476;13.424;2022-08-06T16:11:46;101856.75;;;27.11;25.02
36852;BME280;22784;52.476;13.424;2022-08-06T16:15:51;101821.38;;;26.75;25.76
36852;BME280;22784;52.476;13.424;2022-08-06T16:19:55;101858.38;;;26.88;24.96
36852;BME280;22784;52.476;13.424;2022-08-06T16:24:02;101825.78;;;26.53;24.17
36852;BME280;22784;52.476;13.424;2022-08-06T16:28:08;101853.38;;;26.54;24.21
36852;BME280;22784;52.476;13.424;2022-08-06T16:32:12;101838.13;;;26.31;24.96
36852;BME280;22784;52.476;13.424;2022-08-06T16:36:16;101847.66;;;26.25;25.19
36852;BME280;22784;52.476;13.424;2022-08-06T16:40:24;101842.38;;;26.18;25.04
36852;BME280;22784;52.476;13.424;2022-08-06T16:44:28;101848.34;;;26.10;25.47
36852;BME280;22784;52.476;13.424;2022-08-06T16:48:32;101831.47;;;25.96;25.96
36852;BME280;22784;52.476;13.424;2022-08-06T16:52:36;101847.16;;;26.02;25.59
36852;BME280;22784;52.476;13.424;2022-08-06T16:56:42;101818.81;;;25.77;25.57
36852;BME280;22784;52.476;13.424;2022-08-06T17:00:46;101853.09;;;25.95;26.13
36852;BME280;22784;52.476;13.424;2022-08-06T17:04:50;101849.09;;;25.87;26.13
36852;BME280;22784;52.476;13.424;2022-08-06T17:08:53;101843.13;;;25.71;26.52
36852;BME280;22784;52.476;13.424;2022-08-06T17:13:00;101860.34;;;25.78;26.87
36852;BME280;22784;52.476;13.424;2022-08-06T17:17:04;101852.16;;;25.65;26.84
36852;BME280;22784;52.476;13.424;2022-08-06T17:21:08;101856.53;;;25.66;27.43
36852;BME280;22784;52.476;13.424;2022-08-06T17:25:12;101863.53;;;25.62;27.76
36852;BME280;22784;52.476;13.424;2022-08-06T17:29:19;101851.88;;;25.54;27.80
36852;BME280;22784;52.476;13.424;2022-08-06T17:33:22;101860.91;;;25.58;27.44
36852;BME280;22784;52.476;13.424;2022-08-06T17:37:26;101834.19;;;25.39;26.94
36852;BME280;22784;52.476;13.424;2022-08-06T17:41:30;101857.63;;;25.51;26.90
36852;BME280;22784;52.476;13.424;2022-08-06T17:45:37;101811.09;;;25.20;27.11
36852;BME280;22784;52.476;13.424;2022-08-06T17:49:43;101843.72;;;25.33;27.12
36852;BME280;22784;52.476;13.424;2022-08-06T17:53:47;101847.47;;;25.20;28.06
36852;BME280;22784;52.476;13.424;2022-08-06T17:57:53;101855.50;;;25.27;27.48
36852;BME280;22784;52.476;13.424;2022-08-06T18:06:40;101648.03;;;23.90;27.98
36852;BME280;22784;52.476;13.424;2022-08-06T18:11:00;101860.38;;;25.18;28.03
36852;BME280;22784;52.476;13.424;2022-08-06T18:15:04;101855.25;;;25.07;27.86
36852;BME280;22784;52.476;13.424;2022-08-06T18:19:14;101885.56;;;25.18;27.81
36852;BME280;22784;52.476;13.424;2022-08-06T18:23:17;101888.19;;;25.12;28.92
36852;BME280;22784;52.476;13.424;2022-08-06T18:27:22;101887.44;;;25.12;28.63
36852;BME280;22784;52.476;13.424;2022-08-06T18:31:26;101892.41;;;25.08;28.04
36852;BME280;22784;52.476;13.424;2022-08-06T18:35:33;101889.94;;;25.01;27.52
36852;BME280;22784;52.476;13.424;2022-08-06T18:39:36;101890.84;;;24.98;27.67
36852;BME280;22784;52.476;13.424;2022-08-06T18:43:40;101897.06;;;24.93;27.92
36852;BME280;22784;52.476;13.424;2022-08-06T18:47:44;101868.78;;;24.63;27.97
36852;BME280;22784;52.476;13.424;2022-08-06T18:51:50;101907.00;;;24.75;28.39
36852;BME280;22784;52.476;13.424;2022-08-06T18:55:55;101912.44;;;24.70;28.16
36852;BME280;22784;52.476;13.424;2022-08-06T18:59:59;101919.09;;;24.63;28.54
36852;BME280;22784;52.476;13.424;2022-08-06T19:04:04;101918.03;;;24.61;29.06
36852;BME280;22784;52.476;13.424;2022-08-06T19:08:11;101922.81;;;24.60;29.59
36852;BME280;22784;52.476;13.424;2022-08-06T19:12:16;101920.34;;;24.53;29.41
36852;BME280;22784;52.476;13.424;2022-08-06T19:16:20;101906.00;;;24.33;29.11
36852;BME280;22784;52.476;13.424;2022-08-06T19:20:29;101938.78;;;24.51;29.12
36852;BME280;22784;52.476;13.424;2022-08-06T19:24:36;101936.59;;;24.45;29.18
36852;BME280;22784;52.476;13.424;2022-08-06T19:28:40;101931.63;;;24.40;28.91
36852;BME280;22784;52.476;13.424;2022-08-06T19:32:44;101933.94;;;24.33;29.24
36852;BME280;22784;52.476;13.424;2022-08-06T19:36:49;101919.97;;;24.24;29.49
36852;BME280;22784;52.476;13.424;2022-08-06T19:40:56;101945.13;;;24.33;29.43
36852;BME280;22784;52.476;13.424;2022-08-06T19:45:00;101926.41;;;24.12;29.35
36852;BME280;22784;52.476;13.424;2022-08-06T19:49:04;101923.91;;;24.04;29.93
36852;BME280;22784;52.476;13.424;2022-08-06T19:53:08;101952.16;;;24.16;29.41
36852;BME280;22784;52.476;13.424;2022-08-06T19:57:15;101926.34;;;23.93;29.58
36852;BME280;22784;52.476;13.424;2022-08-06T20:01:18;101963.31;;;24.06;30.23
36852;BME280;22784;52.476;13.424;2022-08-06T20:05:24;101960.69;;;24.03;30.25
36852;BME280;22784;52.476;13.424;2022-08-06T20:09:28;101947.59;;;23.91;30.34
36852;BME280;22784;52.476;13.424;2022-08-06T20:13:35;101951.75;;;23.86;30.10
36852;BME280;22784;52.476;13.424;2022-08-06T20:17:40;101977.38;;;23.94;30.63
36852;BME280;22784;52.476;13.424;2022-08-06T20:21:44;101979.09;;;23.91;30.35
36852;BME280;22784;52.476;13.424;2022-08-06T20:25:48;101978.13;;;23.85;30.67
36852;BME280;22784;52.476;13.424;2022-08-06T20:29:57;101972.16;;;23.74;30.34
36852;BME280;22784;52.476;13.424;2022-08-06T20:34:01;101974.63;;;23.72;30.85
36852;BME280;22784;52.476;13.424;2022-08-06T20:38:06;101983.00;;;23.72;30.70
36852;BME280;22784;52.476;13.424;2022-08-06T20:42:10;101958.84;;;23.56;30.62
36852;BME280;22784;52.476;13.424;2022-08-06T20:46:16;101987.19;;;23.67;30.97
36852;BME280;22784;52.476;13.424;2022-08-06T20:50:20;101969.38;;;23.52;31.25
36852;BME280;22784;52.476;13.424;2022-08-06T20:54:23;101967.81;;;23.51;31.03
36852;BME280;22784;52.476;13.424;2022-08-06T20:58:27;101996.25;;;23.59;31.53
36852;BME280;22784;52.476;13.424;2022-08-06T21:02:34;101991.13;;;23.57;31.74
36852;BME280;22784;52.476;13.424;2022-08-06T21:06:37;101971.09;;;23.50;31.85
36852;BME280;22784;52.476;13.424;2022-08-06T21:10:41;101987.50;;;23.48;31.47
36852;BME280;22784;52.476;13.424;2022-08-06T21:14:45;101989.94;;;23.46;32.17
36852;BME280;22784;52.476;13.424;2022-08-06T21:18:51;101986.84;;;23.44;31.78
36852;BME280;22784;52.476;13.424;2022-08-06T21:22:55;101979.41;;;23.28;32.22
36852;BME280;22784;52.476;13.424;2022-08-06T21:26:58;101990.91;;;23.30;32.14